aviador You're here:

KAFN Decoded Metar

JAFFREY in NH, USA
Report Time2017-08-19 10:52:00
UTC Time2017-08-19 11:06:35
Flight Rules lifr LIFR
WindCalm
Visibility402 m
Phenomena:Fog
Clouds:N/A
Ceiling200 ft
Temp18°C (ISA +5)
Dew Point18°C (100% RH)
QNH1010 hPa
Density Alt1,998 ft
Elevation1,027 ft
Report Wrong Elevation
Raw Report
KAFN 191052Z AUTO 00000KT 1/4SM FG VV002 18/18 A2984 RMK AO2
SLP104 T01780178=

Extra information for KAFN:More info

Metar Taf Metar & Taf Last 4 Metars F.Rules Stats Wind Profile Meteogram Temp Stats Airport Information Weather charts Add Link Nearby VenuesMetar ALERT Operation Metar Decoded Social comments

AIRNAV info for KAFN